EWG3LG EDDG-EDDM
Flight info
| Callsign | EWG3LG |
|---|---|
| Flight time | 0h 52m |
| Altitude | 31000 |
| Route | DOMEG1E/07 DOMEG Z841 GMH Q603 TESGA L603 BOMBI T104 HAREM/N0393F270 T104 ROKIL ROKIL1A |
| Aircraft | A320/M-SDE3FGHIRWY/LB1 |
Departure
| Time | 2026-05-08 20:00 |
|---|---|
| Airport | Münster Osnabrück Airport (EDDG) |
Arrival
| Time | 2026-05-08 20:52 |
|---|---|
| Airport | Munich Airport (EDDM) |
| Time | Latitude | Longitude | Altitude | Speed | Heading |
|---|---|---|---|---|---|
| 2026-05-08 19:35 | 52.13132 | 7.69209 | 168 ft | 0 kts | 198° |
| 2026-05-08 19:55 | 52.13131 | 7.69202 | 167 ft | 2 kts | 243° |
| 2026-05-08 19:55 | 52.13162 | 7.69141 | 167 ft | 13 kts | 310° |
| 2026-05-08 19:56 | 52.13160 | 7.68997 | 167 ft | 13 kts | 266° |
| 2026-05-08 19:56 | 52.13231 | 7.68914 | 167 ft | 15 kts | 341° |
| 2026-05-08 19:56 | 52.13290 | 7.68881 | 167 ft | 2 kts | 342° |
| 2026-05-08 19:56 | 52.13307 | 7.68873 | 167 ft | 3 kts | 342° |
| 2026-05-08 19:57 | 52.13336 | 7.68856 | 167 ft | 8 kts | 337° |
| 2026-05-08 19:57 | 52.13342 | 7.68728 | 168 ft | 17 kts | 249° |
| 2026-05-08 19:57 | 52.13298 | 7.68515 | 168 ft | 22 kts | 251° |
| 2026-05-08 19:57 | 52.13244 | 7.68268 | 168 ft | 25 kts | 249° |
| 2026-05-08 19:58 | 52.13184 | 7.67988 | 167 ft | 28 kts | 251° |
| 2026-05-08 19:58 | 52.13119 | 7.67677 | 167 ft | 30 kts | 251° |
| 2026-05-08 19:58 | 52.13063 | 7.67419 | 167 ft | 22 kts | 250° |
| 2026-05-08 19:58 | 52.13025 | 7.67198 | 167 ft | 17 kts | 275° |
| 2026-05-08 19:59 | 52.13101 | 7.67049 | 167 ft | 16 kts | 339° |
| 2026-05-08 19:59 | 52.13170 | 7.67089 | 166 ft | 8 kts | 67° |
| 2026-05-08 19:59 | 52.13172 | 7.67101 | 166 ft | 2 kts | 70° |
| 2026-05-08 19:59 | 52.13259 | 7.67503 | 165 ft | 76 kts | 71° |
| 2026-05-08 20:00 | 52.13503 | 7.68659 | 169 ft | 137 kts | 71° |
| 2026-05-08 20:00 | 52.13823 | 7.70231 | 661 ft | 145 kts | 71° |
| 2026-05-08 20:00 | 52.14154 | 7.71775 | 1378 ft | 145 kts | 72° |
| 2026-05-08 20:00 | 52.14507 | 7.73405 | 1750 ft | 162 kts | 74° |
| 2026-05-08 20:01 | 52.14889 | 7.75254 | 2081 ft | 182 kts | 73° |
| 2026-05-08 20:01 | 52.15323 | 7.77293 | 2430 ft | 199 kts | 72° |
| 2026-05-08 20:01 | 52.15790 | 7.79526 | 2747 ft | 220 kts | 78° |
| 2026-05-08 20:01 | 52.15603 | 7.82015 | 3344 ft | 230 kts | 118° |
| 2026-05-08 20:02 | 52.14422 | 7.83917 | 3827 ft | 252 kts | 150° |
| 2026-05-08 20:02 | 52.12768 | 7.84995 | 4623 ft | 262 kts | 162° |
| 2026-05-08 20:02 | 52.10979 | 7.85788 | 5378 ft | 271 kts | 169° |
| 2026-05-08 20:02 | 52.09134 | 7.85709 | 6253 ft | 272 kts | 195° |
| 2026-05-08 20:03 | 52.07397 | 7.84483 | 7097 ft | 274 kts | 210° |
| 2026-05-08 20:03 | 52.05714 | 7.83045 | 8035 ft | 273 kts | 206° |
| 2026-05-08 20:03 | 52.03986 | 7.81754 | 8932 ft | 276 kts | 203° |
| 2026-05-08 20:03 | 52.02197 | 7.80511 | 9677 ft | 282 kts | 202° |
| 2026-05-08 20:04 | 52.00375 | 7.79278 | 10428 ft | 288 kts | 202° |
| 2026-05-08 20:04 | 51.98449 | 7.77975 | 10704 ft | 311 kts | 202° |
| 2026-05-08 20:04 | 51.96392 | 7.76562 | 11078 ft | 328 kts | 203° |
| 2026-05-08 20:04 | 51.94276 | 7.75085 | 11732 ft | 334 kts | 203° |
| 2026-05-08 20:05 | 51.92124 | 7.73572 | 12433 ft | 339 kts | 204° |
| 2026-05-08 20:05 | 51.89949 | 7.72036 | 13163 ft | 343 kts | 204° |
| 2026-05-08 20:05 | 51.87746 | 7.70485 | 13877 ft | 347 kts | 204° |
| 2026-05-08 20:05 | 51.85521 | 7.68919 | 14507 ft | 350 kts | 205° |
| 2026-05-08 20:06 | 51.83276 | 7.67339 | 15137 ft | 353 kts | 204° |
| 2026-05-08 20:06 | 51.81012 | 7.65746 | 15762 ft | 357 kts | 205° |
| 2026-05-08 20:06 | 51.78729 | 7.64142 | 16406 ft | 359 kts | 204° |
| 2026-05-08 20:06 | 51.76429 | 7.62530 | 17084 ft | 361 kts | 204° |
| 2026-05-08 20:07 | 51.74087 | 7.61019 | 17699 ft | 365 kts | 197° |
| 2026-05-08 20:07 | 51.71586 | 7.60213 | 18295 ft | 369 kts | 185° |
| 2026-05-08 20:07 | 51.69006 | 7.60287 | 18836 ft | 373 kts | 173° |
| 2026-05-08 20:07 | 51.66472 | 7.61251 | 19347 ft | 378 kts | 161° |
| 2026-05-08 20:08 | 51.63988 | 7.62684 | 19865 ft | 381 kts | 161° |
| 2026-05-08 20:08 | 51.61480 | 7.64125 | 20377 ft | 384 kts | 161° |
| 2026-05-08 20:08 | 51.58983 | 7.65553 | 20872 ft | 387 kts | 161° |
| 2026-05-08 20:08 | 51.56403 | 7.67023 | 21372 ft | 390 kts | 161° |
| 2026-05-08 20:09 | 51.53832 | 7.68479 | 21868 ft | 393 kts | 161° |
| 2026-05-08 20:09 | 51.51243 | 7.69942 | 22354 ft | 396 kts | 161° |
| 2026-05-08 20:09 | 51.48635 | 7.71415 | 22840 ft | 399 kts | 162° |
| 2026-05-08 20:09 | 51.46011 | 7.72899 | 23307 ft | 402 kts | 162° |
| 2026-05-08 20:10 | 51.43365 | 7.74400 | 23755 ft | 405 kts | 162° |
| 2026-05-08 20:10 | 51.40699 | 7.75910 | 24146 ft | 407 kts | 162° |
| 2026-05-08 20:10 | 51.38017 | 7.77430 | 24544 ft | 410 kts | 162° |
| 2026-05-08 20:10 | 51.35321 | 7.78951 | 24921 ft | 412 kts | 162° |
| 2026-05-08 20:11 | 51.32645 | 7.80453 | 25292 ft | 414 kts | 162° |
| 2026-05-08 20:11 | 51.29878 | 7.82006 | 25674 ft | 416 kts | 161° |
| 2026-05-08 20:11 | 51.27139 | 7.83546 | 26068 ft | 418 kts | 161° |
| 2026-05-08 20:11 | 51.24428 | 7.85072 | 26434 ft | 420 kts | 161° |
| 2026-05-08 20:12 | 51.21629 | 7.86644 | 26802 ft | 422 kts | 161° |
| 2026-05-08 20:12 | 51.18850 | 7.88205 | 27159 ft | 425 kts | 160° |
| 2026-05-08 20:12 | 51.16156 | 7.90172 | 27502 ft | 428 kts | 151° |
| 2026-05-08 20:12 | 51.13623 | 7.92695 | 27842 ft | 431 kts | 148° |
| 2026-05-08 20:13 | 51.11092 | 7.95284 | 28196 ft | 433 kts | 148° |
| 2026-05-08 20:13 | 51.08552 | 7.97873 | 28553 ft | 435 kts | 148° |
| 2026-05-08 20:13 | 51.05995 | 8.00468 | 28897 ft | 437 kts | 148° |
| 2026-05-08 20:13 | 51.03428 | 8.03070 | 29265 ft | 439 kts | 148° |
| 2026-05-08 20:14 | 51.00882 | 8.05654 | 29586 ft | 440 kts | 148° |
| 2026-05-08 20:14 | 50.98264 | 8.08307 | 29937 ft | 442 kts | 148° |
| 2026-05-08 20:14 | 50.95665 | 8.10935 | 30241 ft | 444 kts | 148° |
| 2026-05-08 20:14 | 50.93055 | 8.13568 | 30491 ft | 446 kts | 148° |
| 2026-05-08 20:15 | 50.90434 | 8.16206 | 30746 ft | 448 kts | 148° |
| 2026-05-08 20:15 | 50.87830 | 8.18824 | 30953 ft | 450 kts | 148° |
| 2026-05-08 20:15 | 50.85186 | 8.21482 | 31111 ft | 451 kts | 148° |
| 2026-05-08 20:15 | 50.82591 | 8.24134 | 31141 ft | 436 kts | 145° |
| 2026-05-08 20:16 | 50.77835 | 8.29874 | 31142 ft | 428 kts | 143° |
| 2026-05-08 20:16 | 50.73168 | 8.35683 | 31142 ft | 427 kts | 142° |
| 2026-05-08 20:17 | 50.68509 | 8.41490 | 31144 ft | 426 kts | 143° |
| 2026-05-08 20:17 | 50.63838 | 8.47243 | 31146 ft | 426 kts | 143° |
| 2026-05-08 20:18 | 50.59154 | 8.52968 | 31146 ft | 426 kts | 143° |
| 2026-05-08 20:18 | 50.54476 | 8.58698 | 31137 ft | 426 kts | 143° |
| 2026-05-08 20:19 | 50.49808 | 8.64411 | 31138 ft | 426 kts | 143° |
| 2026-05-08 20:19 | 50.45124 | 8.70115 | 31131 ft | 425 kts | 143° |
| 2026-05-08 20:20 | 50.40449 | 8.75803 | 31135 ft | 425 kts | 143° |
| 2026-05-08 20:20 | 50.35798 | 8.81446 | 31128 ft | 425 kts | 143° |
| 2026-05-08 20:21 | 50.31120 | 8.87098 | 31127 ft | 425 kts | 144° |
| 2026-05-08 20:21 | 50.26396 | 8.92784 | 31131 ft | 425 kts | 144° |
| 2026-05-08 20:22 | 50.21742 | 8.98375 | 31130 ft | 425 kts | 144° |
| 2026-05-08 20:22 | 50.17818 | 9.03086 | 31129 ft | 425 kts | 144° |
| 2026-05-08 20:23 | 50.12371 | 9.09608 | 31125 ft | 425 kts | 144° |
| 2026-05-08 20:23 | 50.07675 | 9.15204 | 31128 ft | 425 kts | 144° |
| 2026-05-08 20:24 | 50.02983 | 9.20789 | 31118 ft | 424 kts | 144° |
| 2026-05-08 20:24 | 49.98289 | 9.26362 | 31121 ft | 424 kts | 144° |
| 2026-05-08 20:25 | 49.93594 | 9.31920 | 31124 ft | 424 kts | 144° |
| 2026-05-08 20:25 | 49.88905 | 9.37478 | 31124 ft | 424 kts | 144° |
| 2026-05-08 20:26 | 49.84210 | 9.43016 | 31123 ft | 424 kts | 145° |
| 2026-05-08 20:26 | 49.79510 | 9.48531 | 31120 ft | 424 kts | 145° |
| 2026-05-08 20:27 | 49.74813 | 9.54051 | 31108 ft | 424 kts | 145° |
| 2026-05-08 20:27 | 49.70109 | 9.59551 | 31117 ft | 423 kts | 145° |
| 2026-05-08 20:28 | 49.65412 | 9.65026 | 31111 ft | 423 kts | 145° |
| 2026-05-08 20:28 | 49.60707 | 9.70507 | 31109 ft | 423 kts | 145° |
| 2026-05-08 20:29 | 49.56007 | 9.75969 | 31018 ft | 422 kts | 145° |
| 2026-05-08 20:29 | 49.53678 | 9.78669 | 30638 ft | 415 kts | 146° |
| 2026-05-08 20:29 | 49.51420 | 9.81282 | 30276 ft | 409 kts | 146° |
| 2026-05-08 20:30 | 49.49158 | 9.83899 | 29855 ft | 405 kts | 146° |
| 2026-05-08 20:30 | 49.46915 | 9.86492 | 29421 ft | 401 kts | 146° |
| 2026-05-08 20:30 | 49.44691 | 9.89055 | 28991 ft | 399 kts | 146° |
| 2026-05-08 20:30 | 49.42471 | 9.91606 | 28619 ft | 397 kts | 146° |
| 2026-05-08 20:31 | 49.40263 | 9.94134 | 28303 ft | 395 kts | 146° |
| 2026-05-08 20:31 | 49.38065 | 9.96654 | 27976 ft | 393 kts | 146° |
| 2026-05-08 20:31 | 49.35881 | 9.99165 | 27681 ft | 392 kts | 146° |
| 2026-05-08 20:31 | 49.33711 | 10.01665 | 27364 ft | 390 kts | 146° |
| 2026-05-08 20:32 | 49.31545 | 10.04158 | 27042 ft | 388 kts | 146° |
| 2026-05-08 20:32 | 49.29389 | 10.06630 | 26725 ft | 386 kts | 146° |
| 2026-05-08 20:32 | 49.27239 | 10.09085 | 26406 ft | 384 kts | 146° |
| 2026-05-08 20:32 | 49.25099 | 10.11524 | 26108 ft | 383 kts | 146° |
| 2026-05-08 20:33 | 49.22967 | 10.13951 | 25803 ft | 381 kts | 146° |
| 2026-05-08 20:33 | 49.20847 | 10.16362 | 25504 ft | 379 kts | 146° |
| 2026-05-08 20:33 | 49.18733 | 10.18761 | 25221 ft | 377 kts | 146° |
| 2026-05-08 20:33 | 49.16628 | 10.21147 | 25123 ft | 376 kts | 146° |
| 2026-05-08 20:34 | 49.14541 | 10.23572 | 25110 ft | 378 kts | 142° |
| 2026-05-08 20:34 | 49.12659 | 10.26373 | 24689 ft | 378 kts | 136° |
| 2026-05-08 20:34 | 49.09079 | 10.32183 | 23813 ft | 373 kts | 135° |
| 2026-05-08 20:35 | 49.07326 | 10.35021 | 23325 ft | 371 kts | 135° |
| 2026-05-08 20:35 | 49.05563 | 10.37870 | 22830 ft | 368 kts | 136° |
| 2026-05-08 20:35 | 49.03812 | 10.40686 | 22381 ft | 365 kts | 136° |
| 2026-05-08 20:35 | 49.02066 | 10.43483 | 21937 ft | 362 kts | 136° |
| 2026-05-08 20:36 | 49.00332 | 10.46255 | 21505 ft | 360 kts | 136° |
| 2026-05-08 20:36 | 48.98608 | 10.49003 | 21075 ft | 358 kts | 136° |
| 2026-05-08 20:36 | 48.96897 | 10.51726 | 20648 ft | 355 kts | 136° |
| 2026-05-08 20:36 | 48.95195 | 10.54436 | 20229 ft | 353 kts | 136° |
| 2026-05-08 20:37 | 48.93502 | 10.57131 | 19815 ft | 351 kts | 136° |
| 2026-05-08 20:37 | 48.91822 | 10.59804 | 19409 ft | 349 kts | 136° |
| 2026-05-08 20:37 | 48.90073 | 10.62332 | 19016 ft | 345 kts | 143° |
| 2026-05-08 20:37 | 48.88204 | 10.64589 | 18628 ft | 342 kts | 144° |
| 2026-05-08 20:38 | 48.86333 | 10.66803 | 18227 ft | 340 kts | 144° |
| 2026-05-08 20:38 | 48.84468 | 10.69002 | 17798 ft | 338 kts | 144° |
| 2026-05-08 20:38 | 48.82624 | 10.71175 | 17241 ft | 333 kts | 144° |
| 2026-05-08 20:38 | 48.80795 | 10.73328 | 16519 ft | 331 kts | 144° |
| 2026-05-08 20:39 | 48.78975 | 10.75476 | 16034 ft | 331 kts | 144° |
| 2026-05-08 20:39 | 48.77170 | 10.77625 | 15679 ft | 329 kts | 144° |
| 2026-05-08 20:39 | 48.75371 | 10.79769 | 15322 ft | 328 kts | 144° |
| 2026-05-08 20:39 | 48.73585 | 10.81901 | 14978 ft | 326 kts | 144° |
| 2026-05-08 20:40 | 48.71810 | 10.84019 | 14633 ft | 324 kts | 144° |
| 2026-05-08 20:40 | 48.70041 | 10.86130 | 14277 ft | 322 kts | 144° |
| 2026-05-08 20:40 | 48.68298 | 10.88214 | 13672 ft | 318 kts | 144° |
| 2026-05-08 20:40 | 48.67149 | 10.89585 | 13199 ft | 318 kts | 144° |
| 2026-05-08 20:41 | 48.65404 | 10.91655 | 12802 ft | 318 kts | 144° |
| 2026-05-08 20:41 | 48.63671 | 10.93702 | 12362 ft | 314 kts | 144° |
| 2026-05-08 20:41 | 48.61953 | 10.95724 | 11670 ft | 312 kts | 144° |
| 2026-05-08 20:41 | 48.60219 | 10.97754 | 10983 ft | 311 kts | 144° |
| 2026-05-08 20:42 | 48.58522 | 10.99727 | 10543 ft | 312 kts | 144° |
| 2026-05-08 20:42 | 48.56825 | 11.01693 | 10214 ft | 302 kts | 144° |
| 2026-05-08 20:42 | 48.55175 | 11.03602 | 9647 ft | 297 kts | 144° |
| 2026-05-08 20:42 | 48.53544 | 11.05491 | 9229 ft | 294 kts | 144° |
| 2026-05-08 20:43 | 48.51931 | 11.07362 | 8885 ft | 289 kts | 144° |
| 2026-05-08 20:43 | 48.50347 | 11.09192 | 8338 ft | 286 kts | 144° |
| 2026-05-08 20:43 | 48.48771 | 11.11003 | 7936 ft | 284 kts | 144° |
| 2026-05-08 20:43 | 48.47209 | 11.12790 | 7605 ft | 280 kts | 144° |
| 2026-05-08 20:44 | 48.45691 | 11.14596 | 7281 ft | 277 kts | 136° |
| 2026-05-08 20:44 | 48.44649 | 11.16961 | 7153 ft | 268 kts | 117° |
| 2026-05-08 20:44 | 48.43899 | 11.19473 | 6995 ft | 259 kts | 115° |
| 2026-05-08 20:44 | 48.43198 | 11.21941 | 6723 ft | 255 kts | 114° |
| 2026-05-08 20:45 | 48.42507 | 11.24384 | 6416 ft | 252 kts | 115° |
| 2026-05-08 20:45 | 48.41670 | 11.26680 | 6079 ft | 249 kts | 123° |
| 2026-05-08 20:45 | 48.40741 | 11.28856 | 5766 ft | 245 kts | 124° |
| 2026-05-08 20:45 | 48.39805 | 11.30993 | 5428 ft | 244 kts | 124° |
| 2026-05-08 20:46 | 48.38867 | 11.33107 | 5112 ft | 242 kts | 124° |
| 2026-05-08 20:46 | 48.37928 | 11.35200 | 4847 ft | 241 kts | 124° |
| 2026-05-08 20:46 | 48.36986 | 11.37278 | 4585 ft | 239 kts | 124° |
| 2026-05-08 20:46 | 48.36051 | 11.39315 | 4329 ft | 234 kts | 124° |
| 2026-05-08 20:47 | 48.35125 | 11.41305 | 4094 ft | 229 kts | 124° |
| 2026-05-08 20:47 | 48.34259 | 11.43287 | 3999 ft | 226 kts | 114° |
| 2026-05-08 20:47 | 48.33866 | 11.45567 | 4004 ft | 226 kts | 91° |
| 2026-05-08 20:47 | 48.33994 | 11.47922 | 4003 ft | 227 kts | 83° |
| 2026-05-08 20:48 | 48.34189 | 11.50280 | 4003 ft | 227 kts | 83° |
| 2026-05-08 20:48 | 48.34379 | 11.52635 | 4004 ft | 227 kts | 83° |
| 2026-05-08 20:48 | 48.34561 | 11.54918 | 4002 ft | 212 kts | 83° |
| 2026-05-08 20:48 | 48.34730 | 11.57045 | 3977 ft | 199 kts | 83° |
| 2026-05-08 20:49 | 48.34889 | 11.59048 | 3806 ft | 188 kts | 83° |
| 2026-05-08 20:49 | 48.35040 | 11.60963 | 3571 ft | 181 kts | 83° |
| 2026-05-08 20:49 | 48.35182 | 11.62763 | 3372 ft | 164 kts | 83° |
| 2026-05-08 20:49 | 48.35307 | 11.64375 | 3109 ft | 149 kts | 82° |
| 2026-05-08 20:50 | 48.35421 | 11.65873 | 2864 ft | 139 kts | 82° |
| 2026-05-08 20:50 | 48.35540 | 11.67279 | 2704 ft | 134 kts | 81° |
| 2026-05-08 20:50 | 48.35655 | 11.68671 | 2552 ft | 135 kts | 81° |
| 2026-05-08 20:50 | 48.35761 | 11.70096 | 2391 ft | 139 kts | 81° |
| 2026-05-08 20:51 | 48.35877 | 11.71545 | 2225 ft | 140 kts | 81° |
| 2026-05-08 20:51 | 48.35992 | 11.73004 | 2053 ft | 140 kts | 82° |
| 2026-05-08 20:51 | 48.36095 | 11.74476 | 1843 ft | 143 kts | 82° |
| 2026-05-08 20:51 | 48.36211 | 11.75965 | 1638 ft | 143 kts | 81° |
| 2026-05-08 20:52 | 48.36327 | 11.77441 | 1492 ft | 136 kts | 82° |
| 2026-05-08 20:52 | 48.36424 | 11.78647 | 1472 ft | 94 kts | 83° |
| 2026-05-08 20:52 | 48.36450 | 11.79175 | 1478 ft | 34 kts | 96° |
| 2026-05-08 20:52 | 48.36378 | 11.79505 | 1475 ft | 33 kts | 113° |
| 2026-05-08 20:53 | 48.36304 | 11.79755 | 1482 ft | 9 kts | 118° |
| 2026-05-08 20:53 | 48.36250 | 11.79766 | 1472 ft | 11 kts | 212° |
| 2026-05-08 20:53 | 48.36225 | 11.79631 | 1485 ft | 16 kts | 264° |
| 2026-05-08 20:53 | 48.36214 | 11.79465 | 1481 ft | 15 kts | 264° |
| 2026-05-08 20:54 | 48.36194 | 11.79323 | 1481 ft | 13 kts | 233° |
| 2026-05-08 20:54 | 48.36115 | 11.79313 | 1477 ft | 11 kts | 171° |
| 2026-05-08 20:54 | 48.36045 | 11.79326 | 1485 ft | 9 kts | 174° |
| 2026-05-08 20:54 | 48.35978 | 11.79337 | 1485 ft | 10 kts | 174° |
| 2026-05-08 20:55 | 48.35905 | 11.79371 | 1478 ft | 12 kts | 156° |
| 2026-05-08 20:55 | 48.35828 | 11.79389 | 1485 ft | 6 kts | 177° |
| 2026-05-08 20:55 | 48.35796 | 11.79349 | 1478 ft | 8 kts | 252° |
| 2026-05-08 20:55 | 48.35790 | 11.79273 | 1471 ft | 7 kts | 263° |
| 2026-05-08 20:56 | 48.35788 | 11.79248 | 1475 ft | 0 kts | 263° |